sensor_id;sensor_type;location;lat;lon;timestamp;temperature;humidity
20398;DHT22;10358;49.590;11.030;2023-08-07T00:02:02;11.80;99.90
20398;DHT22;10358;49.590;11.030;2023-08-07T00:04:28;11.80;99.90
20398;DHT22;10358;49.590;11.030;2023-08-07T00:06:54;11.80;99.90
20398;DHT22;10358;49.590;11.030;2023-08-07T00:09:19;11.80;99.90
20398;DHT22;10358;49.590;11.030;2023-08-07T00:11:45;11.80;99.90
20398;DHT22;10358;49.590;11.030;2023-08-07T00:14:10;11.80;99.90
20398;DHT22;10358;49.590;11.030;2023-08-07T00:16:36;11.80;99.90
20398;DHT22;10358;49.590;11.030;2023-08-07T00:19:02;11.70;99.90
20398;DHT22;10358;49.590;11.030;2023-08-07T00:21:28;11.80;99.90
20398;DHT22;10358;49.590;11.030;2023-08-07T00:23:53;11.70;99.90
20398;DHT22;10358;49.590;11.030;2023-08-07T00:26:20;11.70;99.90
20398;DHT22;10358;49.590;11.030;2023-08-07T00:28:46;11.70;99.90
20398;DHT22;10358;49.590;11.030;2023-08-07T00:31:12;11.70;99.90
20398;DHT22;10358;49.590;11.030;2023-08-07T00:33:38;11.70;99.90
20398;DHT22;10358;49.590;11.030;2023-08-07T00:36:03;11.60;99.90
20398;DHT22;10358;49.590;11.030;2023-08-07T00:38:29;11.60;99.90
20398;DHT22;10358;49.590;11.030;2023-08-07T00:40:55;11.60;99.90
20398;DHT22;10358;49.590;11.030;2023-08-07T00:43:20;11.60;99.90
20398;DHT22;10358;49.590;11.030;2023-08-07T00:45:46;11.60;99.90
20398;DHT22;10358;49.590;11.030;2023-08-07T00:48:13;11.60;99.90
20398;DHT22;10358;49.590;11.030;2023-08-07T00:50:41;11.50;99.90
20398;DHT22;10358;49.590;11.030;2023-08-07T00:53:08;11.60;99.90
20398;DHT22;10358;49.590;11.030;2023-08-07T00:55:34;11.50;99.90
20398;DHT22;10358;49.590;11.030;2023-08-07T00:58:00;11.50;99.90
20398;DHT22;10358;49.590;11.030;2023-08-07T01:00:28;11.50;99.90
20398;DHT22;10358;49.590;11.030;2023-08-07T01:02:55;11.50;99.90
20398;DHT22;10358;49.590;11.030;2023-08-07T01:05:22;11.50;99.90
20398;DHT22;10358;49.590;11.030;2023-08-07T01:07:48;11.50;99.90
20398;DHT22;10358;49.590;11.030;2023-08-07T01:10:16;11.50;99.90
20398;DHT22;10358;49.590;11.030;2023-08-07T01:12:52;11.50;99.90
20398;DHT22;10358;49.590;11.030;2023-08-07T01:15:30;11.50;99.90
20398;DHT22;10358;49.590;11.030;2023-08-07T01:17:56;11.50;99.90
20398;DHT22;10358;49.590;11.030;2023-08-07T01:20:22;11.40;99.90
20398;DHT22;10358;49.590;11.030;2023-08-07T01:22:48;11.40;99.90
20398;DHT22;10358;49.590;11.030;2023-08-07T01:25:14;11.40;99.90
20398;DHT22;10358;49.590;11.030;2023-08-07T01:27:50;11.50;99.90
20398;DHT22;10358;49.590;11.030;2023-08-07T01:30:29;11.40;99.90
20398;DHT22;10358;49.590;11.030;2023-08-07T01:33:09;11.40;99.90
20398;DHT22;10358;49.590;11.030;2023-08-07T01:35:42;11.40;99.90
20398;DHT22;10358;49.590;11.030;2023-08-07T01:38:08;11.40;99.90
20398;DHT22;10358;49.590;11.030;2023-08-07T01:40:37;11.40;99.90
20398;DHT22;10358;49.590;11.030;2023-08-07T01:43:04;11.40;99.90
20398;DHT22;10358;49.590;11.030;2023-08-07T01:45:29;11.40;99.90
20398;DHT22;10358;49.590;11.030;2023-08-07T01:47:55;11.40;99.90
20398;DHT22;10358;49.590;11.030;2023-08-07T01:50:22;11.40;99.90
20398;DHT22;10358;49.590;11.030;2023-08-07T01:52:48;11.30;99.90
20398;DHT22;10358;49.590;11.030;2023-08-07T01:55:18;11.30;99.90
20398;DHT22;10358;49.590;11.030;2023-08-07T01:57:44;11.30;99.90
20398;DHT22;10358;49.590;11.030;2023-08-07T02:00:10;11.30;99.90
20398;DHT22;10358;49.590;11.030;2023-08-07T02:02:36;11.20;99.90
20398;DHT22;10358;49.590;11.030;2023-08-07T02:05:03;11.30;99.90
20398;DHT22;10358;49.590;11.030;2023-08-07T02:07:29;11.20;99.90
20398;DHT22;10358;49.590;11.030;2023-08-07T02:09:55;11.20;99.90
20398;DHT22;10358;49.590;11.030;2023-08-07T02:12:20;11.20;99.90
20398;DHT22;10358;49.590;11.030;2023-08-07T02:14:46;11.20;99.90
20398;DHT22;10358;49.590;11.030;2023-08-07T02:17:11;11.20;99.90
20398;DHT22;10358;49.590;11.030;2023-08-07T02:19:37;11.20;99.90
20398;DHT22;10358;49.590;11.030;2023-08-07T02:22:03;11.20;99.90
20398;DHT22;10358;49.590;11.030;2023-08-07T02:24:28;11.10;99.90
20398;DHT22;10358;49.590;11.030;2023-08-07T02:26:54;11.20;99.90
20398;DHT22;10358;49.590;11.030;2023-08-07T02:29:19;11.20;99.90
20398;DHT22;10358;49.590;11.030;2023-08-07T02:31:45;11.20;99.90
20398;DHT22;10358;49.590;11.030;2023-08-07T02:34:11;11.20;99.90
20398;DHT22;10358;49.590;11.030;2023-08-07T02:36:36;11.10;99.90
20398;DHT22;10358;49.590;11.030;2023-08-07T02:39:02;11.10;99.90
20398;DHT22;10358;49.590;11.030;2023-08-07T02:41:27;11.10;99.90
20398;DHT22;10358;49.590;11.030;2023-08-07T02:43:53;11.10;99.90
20398;DHT22;10358;49.590;11.030;2023-08-07T02:46:19;11.10;99.90
20398;DHT22;10358;49.590;11.030;2023-08-07T02:48:44;11.10;99.90
20398;DHT22;10358;49.590;11.030;2023-08-07T02:51:10;11.10;99.90
20398;DHT22;10358;49.590;11.030;2023-08-07T02:53:35;11.10;99.90
20398;DHT22;10358;49.590;11.030;2023-08-07T02:56:01;11.00;99.90
20398;DHT22;10358;49.590;11.030;2023-08-07T02:58:27;11.10;99.90
20398;DHT22;10358;49.590;11.030;2023-08-07T05:32:30;11.20;99.90
20398;DHT22;10358;49.590;11.030;2023-08-07T05:34:57;11.10;99.90
20398;DHT22;10358;49.590;11.030;2023-08-07T05:37:23;11.00;99.90
20398;DHT22;10358;49.590;11.030;2023-08-07T05:39:48;11.00;99.90
20398;DHT22;10358;49.590;11.030;2023-08-07T05:42:14;10.90;99.90
20398;DHT22;10358;49.590;11.030;2023-08-07T05:44:39;10.90;99.90
20398;DHT22;10358;49.590;11.030;2023-08-07T05:47:05;10.90;99.90
20398;DHT22;10358;49.590;11.030;2023-08-07T05:49:31;10.90;99.90
20398;DHT22;10358;49.590;11.030;2023-08-07T05:51:57;10.90;99.90
20398;DHT22;10358;49.590;11.030;2023-08-07T05:54:22;10.90;99.90
20398;DHT22;10358;49.590;11.030;2023-08-07T05:56:48;11.00;99.90
20398;DHT22;10358;49.590;11.030;2023-08-07T05:59:14;10.90;99.90
20398;DHT22;10358;49.590;11.030;2023-08-07T06:01:39;10.90;99.90
20398;DHT22;10358;49.590;11.030;2023-08-07T06:04:06;10.90;99.90
20398;DHT22;10358;49.590;11.030;2023-08-07T06:06:31;11.00;99.90
20398;DHT22;10358;49.590;11.030;2023-08-07T06:09:00;11.00;99.90
20398;DHT22;10358;49.590;11.030;2023-08-07T06:11:25;10.90;99.90
20398;DHT22;10358;49.590;11.030;2023-08-07T06:13:51;10.90;99.90
20398;DHT22;10358;49.590;11.030;2023-08-07T06:16:16;10.90;99.90
20398;DHT22;10358;49.590;11.030;2023-08-07T06:18:42;11.00;99.90
20398;DHT22;10358;49.590;11.030;2023-08-07T06:21:08;11.00;99.90
20398;DHT22;10358;49.590;11.030;2023-08-07T06:23:36;10.90;99.90
20398;DHT22;10358;49.590;11.030;2023-08-07T06:26:02;10.90;99.90
20398;DHT22;10358;49.590;11.030;2023-08-07T06:28:33;10.90;99.90
20398;DHT22;10358;49.590;11.030;2023-08-07T06:31:06;11.00;99.90
20398;DHT22;10358;49.590;11.030;2023-08-07T06:33:32;11.00;99.90
20398;DHT22;10358;49.590;11.030;2023-08-07T06:35:59;11.00;99.90
20398;DHT22;10358;49.590;11.030;2023-08-07T06:38:24;10.90;99.90
20398;DHT22;10358;49.590;11.030;2023-08-07T06:40:50;10.90;99.90
20398;DHT22;10358;49.590;11.030;2023-08-07T06:43:15;10.90;99.90
20398;DHT22;10358;49.590;11.030;2023-08-07T06:45:41;11.00;99.90
20398;DHT22;10358;49.590;11.030;2023-08-07T06:48:07;11.00;99.90
20398;DHT22;10358;49.590;11.030;2023-08-07T06:50:32;11.00;99.90
20398;DHT22;10358;49.590;11.030;2023-08-07T06:52:58;10.90;99.90
20398;DHT22;10358;49.590;11.030;2023-08-07T06:55:23;10.90;99.90
20398;DHT22;10358;49.590;11.030;2023-08-07T06:57:49;10.90;99.90
20398;DHT22;10358;49.590;11.030;2023-08-07T07:00:16;11.00;99.90
20398;DHT22;10358;49.590;11.030;2023-08-07T07:02:41;11.00;99.90
20398;DHT22;10358;49.590;11.030;2023-08-07T07:05:07;11.00;99.90
20398;DHT22;10358;49.590;11.030;2023-08-07T07:07:32;11.00;99.90
20398;DHT22;10358;49.590;11.030;2023-08-07T07:09:58;11.00;99.90
20398;DHT22;10358;49.590;11.030;2023-08-07T07:12:26;10.90;99.90
20398;DHT22;10358;49.590;11.030;2023-08-07T07:14:52;10.90;99.90
20398;DHT22;10358;49.590;11.030;2023-08-07T07:17:17;10.90;99.90
20398;DHT22;10358;49.590;11.030;2023-08-07T07:19:43;10.90;99.90
20398;DHT22;10358;49.590;11.030;2023-08-07T07:22:08;11.00;99.90
20398;DHT22;10358;49.590;11.030;2023-08-07T07:24:34;11.00;99.90
20398;DHT22;10358;49.590;11.030;2023-08-07T07:26:59;11.00;99.90
20398;DHT22;10358;49.590;11.030;2023-08-07T07:29:25;11.00;99.90
20398;DHT22;10358;49.590;11.030;2023-08-07T07:31:51;11.00;99.90
20398;DHT22;10358;49.590;11.030;2023-08-07T07:34:16;11.00;99.90
20398;DHT22;10358;49.590;11.030;2023-08-07T07:36:42;11.00;99.90
20398;DHT22;10358;49.590;11.030;2023-08-07T07:39:07;11.10;99.90
20398;DHT22;10358;49.590;11.030;2023-08-07T07:41:35;11.10;99.90
20398;DHT22;10358;49.590;11.030;2023-08-07T07:44:00;11.10;99.90
20398;DHT22;10358;49.590;11.030;2023-08-07T07:46:27;11.10;99.90
20398;DHT22;10358;49.590;11.030;2023-08-07T07:48:53;11.10;99.90
20398;DHT22;10358;49.590;11.030;2023-08-07T07:51:19;11.10;99.90
20398;DHT22;10358;49.590;11.030;2023-08-07T07:53:45;11.20;99.90
20398;DHT22;10358;49.590;11.030;2023-08-07T07:56:10;11.20;99.90
20398;DHT22;10358;49.590;11.030;2023-08-07T07:58:36;11.20;99.90
20398;DHT22;10358;49.590;11.030;2023-08-07T08:01:01;11.30;99.90
20398;DHT22;10358;49.590;11.030;2023-08-07T08:03:27;11.30;99.90
20398;DHT22;10358;49.590;11.030;2023-08-07T08:05:53;11.20;99.90
20398;DHT22;10358;49.590;11.030;2023-08-07T08:08:19;11.20;99.90
20398;DHT22;10358;49.590;11.030;2023-08-07T08:10:45;11.20;99.90
20398;DHT22;10358;49.590;11.030;2023-08-07T08:13:13;11.20;99.90
20398;DHT22;10358;49.590;11.030;2023-08-07T08:15:39;11.20;99.90
20398;DHT22;10358;49.590;11.030;2023-08-07T08:18:04;11.30;99.90
20398;DHT22;10358;49.590;11.030;2023-08-07T08:20:30;11.20;99.90
20398;DHT22;10358;49.590;11.030;2023-08-07T08:22:56;11.30;99.90
20398;DHT22;10358;49.590;11.030;2023-08-07T08:25:22;11.20;99.90
20398;DHT22;10358;49.590;11.030;2023-08-07T08:27:48;11.20;99.90
20398;DHT22;10358;49.590;11.030;2023-08-07T08:30:15;11.30;99.90
20398;DHT22;10358;49.590;11.030;2023-08-07T08:32:40;11.30;99.90
20398;DHT22;10358;49.590;11.030;2023-08-07T08:35:06;11.30;99.90
20398;DHT22;10358;49.590;11.030;2023-08-07T08:37:32;11.30;99.90
20398;DHT22;10358;49.590;11.030;2023-08-07T08:39:57;11.30;99.90
20398;DHT22;10358;49.590;11.030;2023-08-07T08:42:23;11.40;99.90
20398;DHT22;10358;49.590;11.030;2023-08-07T08:44:53;11.30;99.90
20398;DHT22;10358;49.590;11.030;2023-08-07T08:47:21;11.30;99.90
20398;DHT22;10358;49.590;11.030;2023-08-07T08:49:51;11.30;99.90
20398;DHT22;10358;49.590;11.030;2023-08-07T08:52:20;11.30;99.90
20398;DHT22;10358;49.590;11.030;2023-08-07T08:54:47;11.20;99.90
20398;DHT22;10358;49.590;11.030;2023-08-07T08:57:13;11.30;99.90
20398;DHT22;10358;49.590;11.030;2023-08-07T08:59:41;11.30;99.90
20398;DHT22;10358;49.590;11.030;2023-08-07T09:02:07;11.40;99.90
20398;DHT22;10358;49.590;11.030;2023-08-07T09:04:33;11.30;99.90
20398;DHT22;10358;49.590;11.030;2023-08-07T09:07:00;11.30;99.90
20398;DHT22;10358;49.590;11.030;2023-08-07T09:09:27;11.30;99.90
20398;DHT22;10358;49.590;11.030;2023-08-07T09:11:54;11.30;99.90
20398;DHT22;10358;49.590;11.030;2023-08-07T09:14:24;11.40;99.90
20398;DHT22;10358;49.590;11.030;2023-08-07T09:16:51;11.40;99.90
20398;DHT22;10358;49.590;11.030;2023-08-07T09:19:16;11.40;99.90
20398;DHT22;10358;49.590;11.030;2023-08-07T09:21:42;11.40;99.90
20398;DHT22;10358;49.590;11.030;2023-08-07T09:24:08;11.40;99.90
20398;DHT22;10358;49.590;11.030;2023-08-07T09:26:33;11.40;99.90
20398;DHT22;10358;49.590;11.030;2023-08-07T09:28:59;11.40;99.90
20398;DHT22;10358;49.590;11.030;2023-08-07T09:31:26;11.40;99.90
20398;DHT22;10358;49.590;11.030;2023-08-07T09:33:51;11.40;99.90
20398;DHT22;10358;49.590;11.030;2023-08-07T09:36:17;11.50;99.90
20398;DHT22;10358;49.590;11.030;2023-08-07T09:38:44;11.40;99.90
20398;DHT22;10358;49.590;11.030;2023-08-07T09:41:17;11.40;99.90
20398;DHT22;10358;49.590;11.030;2023-08-07T09:43:43;11.40;99.90
20398;DHT22;10358;49.590;11.030;2023-08-07T09:46:09;11.40;99.90
20398;DHT22;10358;49.590;11.030;2023-08-07T09:48:42;11.40;99.90
20398;DHT22;10358;49.590;11.030;2023-08-07T09:51:08;11.40;99.90
20398;DHT22;10358;49.590;11.030;2023-08-07T09:53:34;11.40;99.90
20398;DHT22;10358;49.590;11.030;2023-08-07T09:56:00;11.50;99.90
20398;DHT22;10358;49.590;11.030;2023-08-07T09:58:26;11.50;99.90
20398;DHT22;10358;49.590;11.030;2023-08-07T10:00:52;11.60;99.90
20398;DHT22;10358;49.590;11.030;2023-08-07T10:03:28;11.60;99.90
20398;DHT22;10358;49.590;11.030;2023-08-07T10:05:54;11.60;99.90
20398;DHT22;10358;49.590;11.030;2023-08-07T10:08:21;11.70;99.90
20398;DHT22;10358;49.590;11.030;2023-08-07T10:10:47;11.80;99.90
20398;DHT22;10358;49.590;11.030;2023-08-07T10:13:13;11.80;99.90
20398;DHT22;10358;49.590;11.030;2023-08-07T10:15:40;11.90;99.90
20398;DHT22;10358;49.590;11.030;2023-08-07T10:18:08;12.00;99.90
20398;DHT22;10358;49.590;11.030;2023-08-07T10:20:34;12.00;99.90
20398;DHT22;10358;49.590;11.030;2023-08-07T10:23:11;12.00;99.90
20398;DHT22;10358;49.590;11.030;2023-08-07T10:25:39;12.00;99.90
20398;DHT22;10358;49.590;11.030;2023-08-07T10:28:09;12.10;99.90
20398;DHT22;10358;49.590;11.030;2023-08-07T10:30:36;12.10;99.90
20398;DHT22;10358;49.590;11.030;2023-08-07T10:33:03;12.20;99.90
20398;DHT22;10358;49.590;11.030;2023-08-07T10:35:31;12.10;99.90
20398;DHT22;10358;49.590;11.030;2023-08-07T10:38:10;12.10;99.90
20398;DHT22;10358;49.590;11.030;2023-08-07T10:43:24;12.10;99.90
20398;DHT22;10358;49.590;11.030;2023-08-07T10:45:50;12.10;99.90
20398;DHT22;10358;49.590;11.030;2023-08-07T10:48:20;12.10;99.90
20398;DHT22;10358;49.590;11.030;2023-08-07T10:53:20;12.30;99.90
20398;DHT22;10358;49.590;11.030;2023-08-07T10:55:53;12.40;99.90
20398;DHT22;10358;49.590;11.030;2023-08-07T10:58:29;12.40;99.90
20398;DHT22;10358;49.590;11.030;2023-08-07T11:04:07;12.30;99.90
20398;DHT22;10358;49.590;11.030;2023-08-07T11:06:33;12.40;99.90
20398;DHT22;10358;49.590;11.030;2023-08-07T11:09:00;12.40;99.90
20398;DHT22;10358;49.590;11.030;2023-08-07T11:11:36;12.40;99.90
20398;DHT22;10358;49.590;11.030;2023-08-07T11:14:18;12.40;99.90
20398;DHT22;10358;49.590;11.030;2023-08-07T11:16:44;12.50;99.90
20398;DHT22;10358;49.590;11.030;2023-08-07T11:19:12;12.50;99.90
20398;DHT22;10358;49.590;11.030;2023-08-07T11:21:38;12.70;99.90
20398;DHT22;10358;49.590;11.030;2023-08-07T11:24:05;12.80;99.90
20398;DHT22;10358;49.590;11.030;2023-08-07T11:26:31;12.90;99.90
20398;DHT22;10358;49.590;11.030;2023-08-07T11:28:56;13.00;99.90
20398;DHT22;10358;49.590;11.030;2023-08-07T11:31:23;13.10;99.90
20398;DHT22;10358;49.590;11.030;2023-08-07T11:33:55;13.00;99.90
20398;DHT22;10358;49.590;11.030;2023-08-07T11:36:21;12.90;99.90
20398;DHT22;10358;49.590;11.030;2023-08-07T11:38:47;12.90;99.90
20398;DHT22;10358;49.590;11.030;2023-08-07T11:41:15;12.80;99.90
20398;DHT22;10358;49.590;11.030;2023-08-07T11:43:42;12.70;99.90
20398;DHT22;10358;49.590;11.030;2023-08-07T11:46:12;12.70;99.90
20398;DHT22;10358;49.590;11.030;2023-08-07T11:48:40;12.70;99.90
20398;DHT22;10358;49.590;11.030;2023-08-07T11:51:06;12.70;99.90
20398;DHT22;10358;49.590;11.030;2023-08-07T11:53:34;12.70;99.90
20398;DHT22;10358;49.590;11.030;2023-08-07T11:56:10;12.80;99.90
20398;DHT22;10358;49.590;11.030;2023-08-07T11:58:41;12.70;99.90
20398;DHT22;10358;49.590;11.030;2023-08-07T12:01:21;12.70;99.90
20398;DHT22;10358;49.590;11.030;2023-08-07T12:03:58;12.70;99.90
20398;DHT22;10358;49.590;11.030;2023-08-07T12:06:34;12.60;99.90
20398;DHT22;10358;49.590;11.030;2023-08-07T12:09:02;12.70;99.90
20398;DHT22;10358;49.590;11.030;2023-08-07T12:11:29;12.70;99.90
20398;DHT22;10358;49.590;11.030;2023-08-07T12:13:55;12.80;99.90
20398;DHT22;10358;49.590;11.030;2023-08-07T12:16:21;12.80;99.90
20398;DHT22;10358;49.590;11.030;2023-08-07T12:18:51;12.90;99.90
20398;DHT22;10358;49.590;11.030;2023-08-07T12:21:19;12.90;99.90
20398;DHT22;10358;49.590;11.030;2023-08-07T12:23:46;12.90;99.90
20398;DHT22;10358;49.590;11.030;2023-08-07T12:26:15;12.80;99.90
20398;DHT22;10358;49.590;11.030;2023-08-07T12:28:40;12.80;99.90
20398;DHT22;10358;49.590;11.030;2023-08-07T12:31:06;12.80;99.90
20398;DHT22;10358;49.590;11.030;2023-08-07T12:33:35;12.70;99.90
20398;DHT22;10358;49.590;11.030;2023-08-07T12:36:01;12.70;99.90
20398;DHT22;10358;49.590;11.030;2023-08-07T12:38:27;12.70;99.90
20398;DHT22;10358;49.590;11.030;2023-08-07T12:40:53;12.80;99.90
20398;DHT22;10358;49.590;11.030;2023-08-07T12:43:19;12.90;99.90
20398;DHT22;10358;49.590;11.030;2023-08-07T12:45:45;12.90;99.90
20398;DHT22;10358;49.590;11.030;2023-08-07T12:48:10;13.00;99.90
20398;DHT22;10358;49.590;11.030;2023-08-07T12:50:36;13.00;99.90
20398;DHT22;10358;49.590;11.030;2023-08-07T12:53:02;13.10;99.90
20398;DHT22;10358;49.590;11.030;2023-08-07T12:55:28;13.00;99.90
20398;DHT22;10358;49.590;11.030;2023-08-07T12:57:55;12.90;99.90
20398;DHT22;10358;49.590;11.030;2023-08-07T13:00:21;12.90;99.90
20398;DHT22;10358;49.590;11.030;2023-08-07T13:02:48;12.70;99.90
20398;DHT22;10358;49.590;11.030;2023-08-07T13:05:15;12.70;99.90
20398;DHT22;10358;49.590;11.030;2023-08-07T13:07:42;12.60;99.90
20398;DHT22;10358;49.590;11.030;2023-08-07T13:10:10;12.60;99.90
20398;DHT22;10358;49.590;11.030;2023-08-07T13:12:37;12.60;99.90
20398;DHT22;10358;49.590;11.030;2023-08-07T13:15:04;12.60;99.90
20398;DHT22;10358;49.590;11.030;2023-08-07T13:17:31;12.70;99.90
20398;DHT22;10358;49.590;11.030;2023-08-07T13:19:57;12.70;99.90
20398;DHT22;10358;49.590;11.030;2023-08-07T13:22:22;12.70;99.90
20398;DHT22;10358;49.590;11.030;2023-08-07T13:24:48;12.60;99.90
20398;DHT22;10358;49.590;11.030;2023-08-07T13:27:13;12.60;99.90
20398;DHT22;10358;49.590;11.030;2023-08-07T13:29:39;12.60;99.90
20398;DHT22;10358;49.590;11.030;2023-08-07T13:32:05;12.70;99.90
20398;DHT22;10358;49.590;11.030;2023-08-07T13:34:35;12.70;99.90
20398;DHT22;10358;49.590;11.030;2023-08-07T13:37:02;12.80;99.90
20398;DHT22;10358;49.590;11.030;2023-08-07T13:39:27;12.90;99.90
20398;DHT22;10358;49.590;11.030;2023-08-07T13:41:53;12.90;99.90
20398;DHT22;10358;49.590;11.030;2023-08-07T13:44:19;13.00;99.90
20398;DHT22;10358;49.590;11.030;2023-08-07T13:46:45;13.10;99.90
20398;DHT22;10358;49.590;11.030;2023-08-07T13:49:11;13.20;99.90
20398;DHT22;10358;49.590;11.030;2023-08-07T13:51:36;13.20;99.90
20398;DHT22;10358;49.590;11.030;2023-08-07T13:54:02;13.30;99.90
20398;DHT22;10358;49.590;11.030;2023-08-07T13:56:27;13.30;99.90
20398;DHT22;10358;49.590;11.030;2023-08-07T13:58:53;13.40;99.90
20398;DHT22;10358;49.590;11.030;2023-08-07T14:01:20;13.40;99.90
20398;DHT22;10358;49.590;11.030;2023-08-07T14:03:45;13.30;99.90
20398;DHT22;10358;49.590;11.030;2023-08-07T14:06:11;13.30;99.90
20398;DHT22;10358;49.590;11.030;2023-08-07T14:08:36;13.20;99.90
20398;DHT22;10358;49.590;11.030;2023-08-07T14:11:02;13.20;99.90
20398;DHT22;10358;49.590;11.030;2023-08-07T14:13:28;13.20;99.90
20398;DHT22;10358;49.590;11.030;2023-08-07T14:15:53;13.20;99.90
20398;DHT22;10358;49.590;11.030;2023-08-07T14:18:19;13.20;99.90
20398;DHT22;10358;49.590;11.030;2023-08-07T14:20:45;13.20;99.90
20398;DHT22;10358;49.590;11.030;2023-08-07T14:23:10;13.10;99.90
20398;DHT22;10358;49.590;11.030;2023-08-07T14:25:36;13.00;99.90
20398;DHT22;10358;49.590;11.030;2023-08-07T14:28:01;13.00;99.90
20398;DHT22;10358;49.590;11.030;2023-08-07T14:30:27;13.00;99.90
20398;DHT22;10358;49.590;11.030;2023-08-07T14:32:52;13.10;99.90
20398;DHT22;10358;49.590;11.030;2023-08-07T14:35:18;13.00;99.90
20398;DHT22;10358;49.590;11.030;2023-08-07T14:37:43;13.10;99.90
20398;DHT22;10358;49.590;11.030;2023-08-07T14:40:09;13.10;99.90
20398;DHT22;10358;49.590;11.030;2023-08-07T14:42:35;13.10;99.90
20398;DHT22;10358;49.590;11.030;2023-08-07T14:45:01;13.20;99.90
20398;DHT22;10358;49.590;11.030;2023-08-07T14:47:26;13.20;99.90
20398;DHT22;10358;49.590;11.030;2023-08-07T14:49:52;13.30;99.90
20398;DHT22;10358;49.590;11.030;2023-08-07T14:52:17;13.40;99.90
20398;DHT22;10358;49.590;11.030;2023-08-07T14:54:43;13.40;99.90
20398;DHT22;10358;49.590;11.030;2023-08-07T14:57:09;13.40;99.90
20398;DHT22;10358;49.590;11.030;2023-08-07T14:59:35;13.40;99.90
20398;DHT22;10358;49.590;11.030;2023-08-07T15:02:00;13.50;99.90
20398;DHT22;10358;49.590;11.030;2023-08-07T15:04:26;13.70;99.90
20398;DHT22;10358;49.590;11.030;2023-08-07T15:06:52;13.90;99.90
20398;DHT22;10358;49.590;11.030;2023-08-07T15:09:18;14.10;99.90
20398;DHT22;10358;49.590;11.030;2023-08-07T15:11:45;14.30;99.90
20398;DHT22;10358;49.590;11.030;2023-08-07T15:14:12;14.60;99.90
20398;DHT22;10358;49.590;11.030;2023-08-07T15:16:37;14.60;99.90
20398;DHT22;10358;49.590;11.030;2023-08-07T15:19:03;14.70;99.90
20398;DHT22;10358;49.590;11.030;2023-08-07T15:21:29;14.70;99.90
20398;DHT22;10358;49.590;11.030;2023-08-07T15:23:55;14.80;99.90
20398;DHT22;10358;49.590;11.030;2023-08-07T15:26:23;14.90;99.90
20398;DHT22;10358;49.590;11.030;2023-08-07T15:28:49;14.90;99.90
20398;DHT22;10358;49.590;11.030;2023-08-07T15:31:14;14.80;99.90
20398;DHT22;10358;49.590;11.030;2023-08-07T15:33:40;14.90;99.90
20398;DHT22;10358;49.590;11.030;2023-08-07T16:02:45;16.00;99.90
20398;DHT22;10358;49.590;11.030;2023-08-07T16:05:11;15.90;99.90
20398;DHT22;10358;49.590;11.030;2023-08-07T16:12:29;18.40;99.90
20398;DHT22;10358;49.590;11.030;2023-08-07T16:14:54;19.60;99.90
20398;DHT22;10358;49.590;11.030;2023-08-07T16:19:50;21.60;99.90
20398;DHT22;10358;49.590;11.030;2023-08-07T16:22:15;22.00;99.90
20398;DHT22;10358;49.590;11.030;2023-08-07T16:24:41;22.20;99.90
20398;DHT22;10358;49.590;11.030;2023-08-07T16:27:06;22.30;99.90
20398;DHT22;10358;49.590;11.030;2023-08-07T16:29:32;21.70;99.90
20398;DHT22;10358;49.590;11.030;2023-08-07T16:31:59;21.70;99.90
20398;DHT22;10358;49.590;11.030;2023-08-07T16:34:30;21.90;99.90
20398;DHT22;10358;49.590;11.030;2023-08-07T16:36:55;22.40;99.90
20398;DHT22;10358;49.590;11.030;2023-08-07T16:39:21;22.70;99.90
20398;DHT22;10358;49.590;11.030;2023-08-07T16:41:46;22.10;99.90
20398;DHT22;10358;49.590;11.030;2023-08-07T16:44:12;22.20;99.90
20398;DHT22;10358;49.590;11.030;2023-08-07T16:46:37;22.40;99.90
20398;DHT22;10358;49.590;11.030;2023-08-07T16:49:03;22.50;99.90
20398;DHT22;10358;49.590;11.030;2023-08-07T16:51:28;22.50;99.90
20398;DHT22;10358;49.590;11.030;2023-08-07T16:53:58;22.80;99.90
20398;DHT22;10358;49.590;11.030;2023-08-07T16:56:23;22.60;99.90
20398;DHT22;10358;49.590;11.030;2023-08-07T16:58:49;22.60;99.90
20398;DHT22;10358;49.590;11.030;2023-08-07T17:01:16;22.10;99.90
20398;DHT22;10358;49.590;11.030;2023-08-07T17:03:41;22.10;99.90
20398;DHT22;10358;49.590;11.030;2023-08-07T17:06:07;22.00;99.90
20398;DHT22;10358;49.590;11.030;2023-08-07T17:08:32;22.00;99.90
20398;DHT22;10358;49.590;11.030;2023-08-07T17:10:58;22.10;99.90
20398;DHT22;10358;49.590;11.030;2023-08-07T17:13:24;22.40;99.90
20398;DHT22;10358;49.590;11.030;2023-08-07T17:15:51;22.70;99.90
20398;DHT22;10358;49.590;11.030;2023-08-07T17:18:16;23.10;99.90
20398;DHT22;10358;49.590;11.030;2023-08-07T17:20:42;23.10;99.90
20398;DHT22;10358;49.590;11.030;2023-08-07T17:23:07;23.10;99.90
20398;DHT22;10358;49.590;11.030;2023-08-07T17:25:33;22.80;99.90
20398;DHT22;10358;49.590;11.030;2023-08-07T17:27:59;22.10;99.90
20398;DHT22;10358;49.590;11.030;2023-08-07T17:30:25;21.60;99.90
20398;DHT22;10358;49.590;11.030;2023-08-07T17:32:50;21.90;99.90
20398;DHT22;10358;49.590;11.030;2023-08-07T17:35:16;22.40;99.90
20398;DHT22;10358;49.590;11.030;2023-08-07T17:37:41;22.60;99.90
20398;DHT22;10358;49.590;11.030;2023-08-07T17:40:07;22.60;99.90
20398;DHT22;10358;49.590;11.030;2023-08-07T17:42:33;22.70;99.90
20398;DHT22;10358;49.590;11.030;2023-08-07T17:44:59;22.90;99.90
20398;DHT22;10358;49.590;11.030;2023-08-07T17:47:25;22.90;99.90
20398;DHT22;10358;49.590;11.030;2023-08-07T17:49:50;22.90;99.90
20398;DHT22;10358;49.590;11.030;2023-08-07T17:52:16;22.90;99.90
20398;DHT22;10358;49.590;11.030;2023-08-07T17:54:42;22.90;99.90
20398;DHT22;10358;49.590;11.030;2023-08-07T17:57:08;22.80;99.90
20398;DHT22;10358;49.590;11.030;2023-08-07T17:59:33;22.90;99.90
20398;DHT22;10358;49.590;11.030;2023-08-07T18:01:59;22.80;99.90
20398;DHT22;10358;49.590;11.030;2023-08-07T18:04:25;22.70;99.90
20398;DHT22;10358;49.590;11.030;2023-08-07T18:06:50;22.60;99.90
20398;DHT22;10358;49.590;11.030;2023-08-07T18:09:18;22.40;99.90
20398;DHT22;10358;49.590;11.030;2023-08-07T18:11:43;22.30;99.90
20398;DHT22;10358;49.590;11.030;2023-08-07T18:14:09;22.10;99.90
20398;DHT22;10358;49.590;11.030;2023-08-07T18:16:34;21.90;99.90
20398;DHT22;10358;49.590;11.030;2023-08-07T18:19:00;21.60;99.90
20398;DHT22;10358;49.590;11.030;2023-08-07T18:21:25;21.00;99.90
20398;DHT22;10358;49.590;11.030;2023-08-07T18:23:51;20.40;99.90
20398;DHT22;10358;49.590;11.030;2023-08-07T18:26:17;19.90;99.90